EDDT Airport Information

Runway Information
Runway 08L Length 9918 ft width 151 ft
Elevation 110 ft Threshold 0 ft Heading 81
Runway 26R Length 9918 ft Width 151 ft
Elevation 117 ft Threshold 0 ft Heading 261
Runway 08R Length 7966 ft width 151 ft
Elevation 109 ft Threshold 341 ft Heading 81
Runway 26L Length 7966 ft Width 151 ft
Elevation 122 ft Threshold 722 ft Heading 261
Airport Frequencies
Type AFIS Name BERLIN INF Frequency 132.65 MHZ
Type APP Name BERLIN ARR Frequency 119.625 MHZ
Type ATIS Name ATIS Frequency 125.9 MHZ
Type DEP Name BERLIN DEP Frequency 120.625 MHZ
Type DIR Name BERLIN DIR Frequency 136.1 MHZ
Type GND Name GND Frequency 121.925 MHZ
Type RMP Name BERLIN MIL Frequency 136 MHZ
Type TWR Name TWR Frequency 124.525 MHZ
Airport Navaids
Type NDB Name Tegel East Frequency 321 KHZ
Type NDB Name Tegel West Frequency 392 KHZ
Type VOR-DME Name Tegel Frequency 112300 KHZ
Airport Weather Information & NOTAM
ADDS - METARS form results

(1859 UTC 22 June 2018)
 
METAR text: EDDT 221850Z 30009KT 270V340 9999 VCSH NSC 16/07 Q1018 TEMPO 30015G25KT
Conditions at: EDDT (BERLIN/TEGEL (FA, DE) observed 1850 UTC 22 June 2018
Temperature: 16.0°C (61°F)
Dewpoint: 7.0°C (45°F) [RH = 55%]
Pressure (altimeter): 30.06 inches Hg (1018.0 mb)
Winds: from the WNW (300 degrees) at 10 MPH (9 knots; 4.7 m/s)
Visibility: 6 or more miles (10+ km)
Ceiling: at least 12,000 feet AGL
Clouds: sky clear below 12,000 feet AGL
Weather: VCSH  (showers in vicinity)

METAR text: EDDT 221820Z 30011KT 260V340 9999 VCSH FEW038 SCT049 BKN280 17/06 Q1017 TEMPO 30015G25KT
Conditions at: EDDT (BERLIN/TEGEL (FA, DE) observed 1820 UTC 22 June 2018
Temperature: 17.0°C (63°F)
Dewpoint: 6.0°C (43°F) [RH = 48%]
Pressure (altimeter): 30.03 inches Hg (1017.0 mb)
Winds: from the WNW (300 degrees) at 13 MPH (11 knots; 5.7 m/s)
Visibility: 6 or more miles (10+ km)
Ceiling: 28000 feet AGL
Clouds: few clouds at 3800 feet AGL
scattered clouds at 4900 feet AGL
broken clouds at 28000 feet AGL
Weather: VCSH  (showers in vicinity)